createdAt,value
2022-10-06T00:01:17.399Z,89.80
2022-10-06T00:04:32.331Z,89.89
2022-10-06T00:08:10.284Z,90.10
2022-10-06T00:11:21.312Z,90.20
2022-10-06T00:14:49.724Z,90.47
2022-10-06T00:18:05.288Z,90.36
2022-10-06T00:21:06.931Z,90.45
2022-10-06T00:24:21.263Z,90.62
2022-10-06T00:27:22.872Z,90.53
2022-10-06T00:30:57.324Z,91.10
2022-10-06T00:34:05.892Z,92.06
2022-10-06T00:37:14.318Z,92.59
2022-10-06T00:40:23.508Z,92.42
2022-10-06T00:43:53.261Z,91.91
2022-10-06T00:46:54.909Z,92.51
2022-10-06T00:50:09.286Z,93.47
2022-10-06T00:53:17.810Z,94.52
2022-10-06T00:56:26.289Z,95.68
2022-10-06T00:59:36.715Z,96.14
2022-10-06T01:02:51.314Z,96.64
2022-10-06T01:06:13.331Z,97.28
2022-10-06T01:09:42.376Z,98.08
2022-10-06T01:12:50.263Z,98.31
2022-10-06T01:16:16.094Z,98.93
2022-10-06T01:19:54.275Z,99.65
2022-10-06T01:23:16.713Z,100.00
2022-10-06T01:26:54.286Z,100.00
2022-10-06T01:30:11.537Z,100.00
2022-10-06T01:33:25.351Z,100.00
2022-10-06T01:36:40.366Z,100.00
2022-10-06T01:39:48.768Z,100.00
2022-10-06T01:42:57.295Z,100.00
2022-10-06T01:46:06.471Z,100.00
2022-10-06T01:49:42.293Z,100.00
2022-10-06T01:53:03.846Z,100.00
2022-10-06T01:56:18.289Z,100.00
2022-10-06T01:59:20.119Z,100.00
2022-10-06T02:02:37.450Z,100.00
2022-10-06T02:05:46.079Z,100.00
2022-10-06T02:09:21.287Z,100.00
2022-10-06T02:12:29.824Z,100.00
2022-10-06T02:15:44.379Z,100.00
2022-10-06T02:18:46.027Z,100.00
2022-10-06T02:22:01.279Z,100.00
2022-10-06T02:25:18.271Z,100.00
2022-10-06T02:28:39.787Z,100.00
2022-10-06T02:32:12.363Z,100.00
2022-10-06T02:35:28.287Z,100.00
2022-10-06T02:38:33.569Z,100.00
2022-10-06T02:41:48.318Z,100.00
2022-10-06T02:45:16.331Z,100.00
2022-10-06T02:48:44.611Z,100.00
2022-10-06T02:52:19.400Z,100.00
2022-10-06T02:55:47.864Z,100.00
2022-10-06T02:59:16.311Z,100.00
2022-10-06T03:02:25.172Z,100.00
2022-10-06T03:05:40.328Z,100.00
2022-10-06T03:09:06.073Z,100.00
2022-10-06T03:12:40.312Z,100.00
2022-10-06T03:15:55.475Z,100.00
2022-10-06T03:18:57.862Z,100.00
2022-10-06T03:22:12.667Z,100.00
2022-10-06T03:25:33.507Z,100.00
2022-10-06T03:28:41.933Z,100.00
2022-10-06T03:31:56.316Z,100.00
2022-10-06T03:34:58.683Z,100.00
2022-10-06T03:38:33.326Z,100.00
2022-10-06T03:41:56.647Z,100.00
2022-10-06T03:45:24.299Z,100.00
2022-10-06T03:48:35.680Z,100.00
2022-10-06T03:52:10.453Z,100.00
2022-10-06T03:55:32.008Z,100.00
2022-10-06T03:59:09.599Z,100.00
2022-10-06T04:02:24.375Z,100.00
2022-10-06T04:05:26.145Z,100.00
2022-10-06T04:08:48.312Z,100.00
2022-10-06T04:11:57.046Z,100.00
2022-10-06T04:15:06.351Z,100.00
2022-10-06T04:18:15.910Z,100.00
2022-10-06T04:21:32.297Z,100.00
2022-10-06T04:24:41.330Z,100.00
2022-10-06T04:28:09.672Z,100.00
2022-10-06T04:31:41.357Z,100.00
2022-10-06T04:34:56.318Z,100.00
2022-10-06T04:38:04.893Z,100.00
2022-10-06T04:41:16.307Z,100.00
2022-10-06T04:44:24.831Z,100.00
2022-10-06T04:47:40.336Z,100.00
2022-10-06T04:50:41.943Z,100.00
2022-10-06T04:53:56.328Z,100.00
2022-10-06T04:57:04.354Z,100.00
2022-10-06T05:00:32.731Z,100.00
2022-10-06T05:03:47.362Z,100.00
2022-10-06T05:06:49.223Z,100.00
2022-10-06T05:10:11.323Z,100.00
2022-10-06T05:13:26.580Z,100.00
2022-10-06T05:16:48.137Z,100.00
2022-10-06T05:20:22.346Z,100.00
2022-10-06T05:23:32.753Z,100.00
2022-10-06T05:27:02.003Z,100.00
2022-10-06T05:30:37.624Z,100.00
2022-10-06T05:34:25.763Z,100.00
2022-10-06T05:37:34.423Z,100.00
2022-10-06T05:40:49.331Z,100.00
2022-10-06T05:43:58.578Z,99.85
2022-10-06T06:02:04.514Z,93.02
2022-10-06T06:05:20.376Z,92.56
2022-10-06T06:08:22.928Z,92.52
2022-10-06T06:26:05.516Z,92.69
2022-10-06T06:29:39.843Z,93.15
2022-10-06T06:37:16.059Z,92.88
2022-10-06T07:53:55.548Z,79.39
2022-10-06T07:57:19.543Z,78.27
2022-10-06T08:00:30.008Z,77.63
2022-10-06T08:03:56.404Z,76.23
2022-10-06T08:07:26.387Z,74.78
2022-10-06T08:11:01.831Z,74.19
2022-10-06T08:14:42.590Z,73.20
2022-10-06T08:50:28.608Z,66.98
2022-10-06T09:02:39.530Z,62.40
2022-10-06T09:10:06.825Z,61.85
2022-10-06T10:20:06.521Z,59.09
2022-10-06T10:32:20.886Z,56.98
2022-10-06T10:36:13.548Z,56.83
2022-10-06T12:03:48.787Z,60.91
2022-10-06T12:11:33.447Z,59.23
2022-10-06T12:19:20.318Z,60.32
2022-10-06T12:56:05.010Z,58.96
2022-10-06T13:48:33.610Z,62.06
2022-10-06T13:52:30.844Z,62.06
2022-10-06T13:56:08.468Z,63.60
2022-10-06T14:00:33.714Z,63.54
2022-10-06T14:11:53.647Z,64.37
2022-10-06T14:16:10.181Z,63.98
2022-10-06T14:54:27.036Z,67.11
2022-10-06T16:12:28.666Z,71.92
2022-10-06T16:15:59.738Z,71.74
2022-10-06T16:49:36.158Z,73.90
2022-10-06T16:53:24.204Z,76.11
2022-10-06T16:56:41.674Z,76.79
2022-10-06T17:24:12.975Z,78.33
2022-10-06T17:39:28.926Z,77.63
2022-10-06T17:42:43.798Z,78.88
2022-10-06T18:40:19.740Z,83.08
2022-10-06T18:43:21.537Z,85.71
2022-10-06T18:46:42.676Z,86.77
2022-10-06T18:49:51.319Z,86.30
2022-10-06T18:52:59.897Z,87.78
2022-10-06T18:56:09.128Z,87.43
2022-10-06T18:59:18.667Z,89.14
2022-10-06T19:02:55.690Z,88.97
2022-10-06T19:06:52.732Z,88.65
2022-10-06T19:10:41.936Z,89.14
2022-10-06T19:37:26.952Z,92.01
2022-10-06T19:41:04.417Z,91.34
2022-10-06T20:12:57.228Z,89.85
2022-10-06T20:16:55.806Z,89.84
2022-10-06T20:29:10.680Z,91.11
2022-10-06T20:33:06.492Z,93.49
2022-10-06T20:37:03.727Z,92.59
2022-10-06T20:53:48.951Z,92.36
2022-10-06T20:57:43.968Z,91.99
2022-10-06T21:01:13.116Z,93.48
2022-10-06T21:16:33.462Z,92.83
2022-10-06T22:04:26.749Z,95.64
2022-10-06T22:20:30.189Z,96.49
2022-10-06T22:24:23.005Z,96.78
2022-10-06T22:27:50.757Z,97.02
2022-10-06T23:04:12.745Z,98.63
2022-10-06T23:07:34.266Z,99.08
